Time;durP1;ratioP1;P1;durP2;ratioP2;P2;SDS_P1;SDS_P2;PMS_P1;PMS_P2;Temp;Humidity;BMP_temperature;BMP_pressure;BME280_temperature;BME280_humidity;BME280_pressure;Samples;Min_cycle;Max_cycle;Signal;HPM_P1;HPM_P2
2020/12/03 00:00:36;;;;;;;33.70;21.83;;;;;;;;;;5034118;28;20165;-81
2020/12/03 00:03:04;;;;;;;37.13;23.80;;;;;;;;;;5034419;28;20251;-82
2020/12/03 00:05:30;;;;;;;29.10;18.47;;;;;;;;;;5034095;28;20177;-81
2020/12/03 00:07:56;;;;;;;30.57;20.40;;;;;;;;;;5034240;28;20173;-82
2020/12/03 00:10:21;;;;;;;32.63;21.77;;;;;;;;;;5033725;28;20183;-81
2020/12/03 00:13:00;;;;;;;40.10;25.97;;;;;;;;;;5033665;28;20203;-82
2020/12/03 00:15:25;;;;;;;30.43;19.80;;;;;;;;;;5034149;28;20191;-82
2020/12/03 00:17:50;;;;;;;32.03;19.03;;;;;;;;;;5033946;28;20285;-82
2020/12/03 00:20:16;;;;;;;29.67;19.00;;;;;;;;;;5033591;28;20279;-82
2020/12/03 00:22:42;;;;;;;28.17;18.77;;;;;;;;;;5033717;28;20172;-82
2020/12/03 00:25:08;;;;;;;27.87;18.13;;;;;;;;;;5034300;28;20196;-81
2020/12/03 00:27:33;;;;;;;31.43;19.77;;;;;;;;;;5037928;28;20646;-82
2020/12/03 00:29:58;;;;;;;43.23;23.40;;;;;;;;;;5037626;28;20630;-81
2020/12/03 00:32:24;;;;;;;70.47;30.83;;;;;;;;;;5037616;28;20172;-81
2020/12/03 00:34:49;;;;;;;31.93;20.23;;;;;;;;;;5037477;28;20180;-81
2020/12/03 00:37:14;;;;;;;33.70;21.20;;;;;;;;;;5037948;28;20203;-82
2020/12/03 00:39:39;;;;;;;29.73;18.17;;;;;;;;;;5037806;28;20526;-82
2020/12/03 00:42:05;;;;;;;29.97;18.13;;;;;;;;;;5037916;28;20169;-81
2020/12/03 00:44:30;;;;;;;30.40;19.50;;;;;;;;;;5037663;28;20179;-81
2020/12/03 00:46:55;;;;;;;26.93;17.70;;;;;;;;;;5038428;28;20203;-82
2020/12/03 00:49:21;;;;;;;40.30;22.33;;;;;;;;;;5037247;28;20255;-82
2020/12/03 00:51:50;;;;;;;29.67;18.10;;;;;;;;;;5037232;28;20525;-82
2020/12/03 00:54:15;;;;;;;168.17;54.87;;;;;;;;;;5037493;28;20172;-82
2020/12/03 00:56:41;;;;;;;173.97;57.77;;;;;;;;;;5036951;28;20231;-82
2020/12/03 00:59:06;;;;;;;31.40;20.80;;;;;;;;;;5037147;28;20200;-82
2020/12/03 01:01:33;;;;;;;31.20;20.50;;;;;;;;;;5037914;28;20176;-81
2020/12/03 01:03:58;;;;;;;28.73;18.13;;;;;;;;;;5037538;28;20168;-81
2020/12/03 01:06:23;;;;;;;33.93;21.77;;;;;;;;;;5037783;28;20492;-81
2020/12/03 01:08:49;;;;;;;33.87;23.30;;;;;;;;;;5037453;28;20684;-82
2020/12/03 01:11:17;;;;;;;33.17;21.10;;;;;;;;;;5037203;28;20215;-81
2020/12/03 01:13:43;;;;;;;31.00;20.43;;;;;;;;;;5036843;28;20510;-81
2020/12/03 01:16:12;;;;;;;29.03;19.27;;;;;;;;;;5037425;28;20179;-81
2020/12/03 01:18:37;;;;;;;50.97;27.23;;;;;;;;;;5036969;28;20200;-81
2020/12/03 01:21:02;;;;;;;69.03;34.60;;;;;;;;;;5036668;28;20168;-81
2020/12/03 01:23:28;;;;;;;43.40;25.70;;;;;;;;;;5037419;28;20165;-81
2020/12/03 01:25:53;;;;;;;30.20;19.67;;;;;;;;;;5037031;28;20192;-81
2020/12/03 01:28:19;;;;;;;33.23;21.07;;;;;;;;;;5036479;28;20169;-81
2020/12/03 01:30:44;;;;;;;26.80;18.53;;;;;;;;;;5037332;28;20171;-81
2020/12/03 01:33:09;;;;;;;29.00;18.93;;;;;;;;;;5036854;28;20172;-81
2020/12/03 01:35:34;;;;;;;32.40;20.10;;;;;;;;;;5037282;28;20188;-81
2020/12/03 01:38:00;;;;;;;27.30;17.73;;;;;;;;;;5035377;28;20192;-82
2020/12/03 01:40:25;;;;;;;31.00;19.47;;;;;;;;;;5036586;28;20169;-81
2020/12/03 01:42:51;;;;;;;27.13;17.00;;;;;;;;;;5036545;28;20173;-81
2020/12/03 01:45:35;;;;;;;31.70;21.03;;;;;;;;;;5036764;28;20173;-81
2020/12/03 01:48:01;;;;;;;34.90;20.10;;;;;;;;;;5036724;28;20172;-81
2020/12/03 01:50:26;;;;;;;32.20;18.63;;;;;;;;;;5036560;28;20179;-81
2020/12/03 01:52:51;;;;;;;26.90;17.27;;;;;;;;;;5036410;28;20192;-81
2020/12/03 01:55:17;;;;;;;31.70;19.37;;;;;;;;;;5036077;28;20172;-81
2020/12/03 01:57:52;;;;;;;37.17;22.90;;;;;;;;;;5036429;28;20231;-81
2020/12/03 02:00:19;;;;;;;23.33;15.63;;;;;;;;;;5036338;28;20538;-81
2020/12/03 02:02:51;;;;;;;30.10;19.63;;;;;;;;;;5035884;28;20199;-81
2020/12/03 02:05:19;;;;;;;29.63;18.23;;;;;;;;;;5036454;28;20165;-81
2020/12/03 02:07:45;;;;;;;29.77;18.30;;;;;;;;;;5036156;28;20169;-81
2020/12/03 02:10:11;;;;;;;31.10;18.37;;;;;;;;;;5035804;28;20226;-81
2020/12/03 02:12:36;;;;;;;31.93;18.70;;;;;;;;;;5035710;28;20176;-81
2020/12/03 02:15:03;;;;;;;30.63;17.90;;;;;;;;;;5035694;28;20210;-81
2020/12/03 02:17:29;;;;;;;28.57;17.33;;;;;;;;;;5035829;28;20294;-81
2020/12/03 02:19:55;;;;;;;30.10;16.47;;;;;;;;;;5036287;28;20207;-81
2020/12/03 02:22:21;;;;;;;40.07;20.93;;;;;;;;;;5036393;28;20168;-81
2020/12/03 02:24:46;;;;;;;30.37;18.80;;;;;;;;;;5035812;28;20188;-81
2020/12/03 02:27:13;;;;;;;31.03;20.17;;;;;;;;;;5035578;28;20196;-81
2020/12/03 02:29:38;;;;;;;27.30;18.07;;;;;;;;;;5035923;28;20530;-81
2020/12/03 02:32:03;;;;;;;28.80;17.77;;;;;;;;;;5035614;28;20184;-81
2020/12/03 02:34:29;;;;;;;40.33;23.20;;;;;;;;;;5035321;28;20169;-81
2020/12/03 02:36:55;;;;;;;37.20;19.33;;;;;;;;;;5035429;28;20173;-81
2020/12/03 02:39:21;;;;;;;35.63;21.23;;;;;;;;;;5035177;28;20692;-81
2020/12/03 02:41:47;;;;;;;36.63;21.27;;;;;;;;;;5035465;28;20165;-81
2020/12/03 02:44:13;;;;;;;47.90;25.87;;;;;;;;;;5035769;28;20165;-81
2020/12/03 02:46:38;;;;;;;34.30;19.47;;;;;;;;;;5035720;28;20538;-81
2020/12/03 02:49:03;;;;;;;35.60;21.60;;;;;;;;;;5033643;28;20212;-81
2020/12/03 02:51:29;;;;;;;34.03;19.47;;;;;;;;;;5034931;28;20169;-81
2020/12/03 02:53:54;;;;;;;29.53;16.67;;;;;;;;;;5035217;28;20169;-81
2020/12/03 02:56:19;;;;;;;36.90;21.07;;;;;;;;;;5035084;28;20267;-81
2020/12/03 02:58:45;;;;;;;40.20;23.63;;;;;;;;;;5035400;28;20219;-81
2020/12/03 03:01:10;;;;;;;32.20;18.57;;;;;;;;;;5035424;28;20635;-81
2020/12/03 03:03:35;;;;;;;49.03;27.73;;;;;;;;;;5035359;28;20176;-81
2020/12/03 03:06:01;;;;;;;36.10;21.67;;;;;;;;;;5035302;28;20165;-81
2020/12/03 03:08:26;;;;;;;33.63;19.87;;;;;;;;;;5034673;28;20169;-81
2020/12/03 03:10:52;;;;;;;33.77;20.03;;;;;;;;;;5035147;28;20259;-81
2020/12/03 03:13:18;;;;;;;32.83;19.33;;;;;;;;;;5034921;28;20169;-81
2020/12/03 03:15:43;;;;;;;36.77;20.13;;;;;;;;;;5035156;28;20230;-81
2020/12/03 03:18:08;;;;;;;34.83;19.47;;;;;;;;;;5033578;28;20287;-81
2020/12/03 03:20:34;;;;;;;27.27;16.17;;;;;;;;;;5035469;28;20172;-81
2020/12/03 03:22:59;;;;;;;31.67;18.77;;;;;;;;;;5034788;28;20251;-81
2020/12/03 03:25:24;;;;;;;39.00;22.60;;;;;;;;;;5034613;28;20226;-81
2020/12/03 03:27:50;;;;;;;32.23;19.13;;;;;;;;;;5034586;28;20241;-81
2020/12/03 03:30:16;;;;;;;32.13;20.87;;;;;;;;;;5034650;28;20259;-81
2020/12/03 03:32:41;;;;;;;36.83;21.47;;;;;;;;;;5034603;28;20173;-81
2020/12/03 03:35:06;;;;;;;40.73;20.60;;;;;;;;;;5034365;28;20163;-81
2020/12/03 03:37:32;;;;;;;33.77;19.70;;;;;;;;;;5034410;28;20197;-81
2020/12/03 03:39:59;;;;;;;32.43;19.43;;;;;;;;;;5034373;28;20165;-81
2020/12/03 03:42:25;;;;;;;37.83;20.30;;;;;;;;;;5034419;28;20168;-81
2020/12/03 03:44:50;;;;;;;39.80;21.90;;;;;;;;;;5034088;28;20503;-81
2020/12/03 03:47:15;;;;;;;41.37;23.53;;;;;;;;;;5034549;28;20173;-81
2020/12/03 03:49:40;;;;;;;33.57;21.20;;;;;;;;;;5034086;28;20172;-81
2020/12/03 03:52:06;;;;;;;39.83;21.17;;;;;;;;;;5034578;28;20176;-81
2020/12/03 03:54:31;;;;;;;37.60;21.60;;;;;;;;;;5035039;28;20172;-81
2020/12/03 03:56:56;;;;;;;41.87;22.03;;;;;;;;;;5033538;28;20696;-81
2020/12/03 03:59:22;;;;;;;42.50;23.20;;;;;;;;;;5034007;28;20247;-81
2020/12/03 04:01:47;;;;;;;41.23;23.17;;;;;;;;;;5033476;28;20172;-81
2020/12/03 04:04:12;;;;;;;44.43;23.70;;;;;;;;;;5033766;28;20179;-81
2020/12/03 04:06:38;;;;;;;40.47;23.43;;;;;;;;;;5034028;28;20503;-81
2020/12/03 04:09:03;;;;;;;53.17;25.23;;;;;;;;;;5033818;28;20176;-81
2020/12/03 04:11:29;;;;;;;44.33;24.70;;;;;;;;;;5033807;28;20176;-81
2020/12/03 04:13:54;;;;;;;54.50;27.43;;;;;;;;;;5034531;28;20178;-81
2020/12/03 04:16:19;;;;;;;47.77;24.87;;;;;;;;;;5034255;28;20190;-81
2020/12/03 04:18:45;;;;;;;43.77;24.20;;;;;;;;;;5033821;28;20223;-81
2020/12/03 04:21:10;;;;;;;45.33;23.93;;;;;;;;;;5033892;28;20169;-81
2020/12/03 04:23:36;;;;;;;43.53;24.73;;;;;;;;;;5034020;28;20186;-81
2020/12/03 04:26:02;;;;;;;43.00;23.23;;;;;;;;;;5033923;28;20183;-81
2020/12/03 04:28:27;;;;;;;45.40;25.50;;;;;;;;;;5033533;28;20266;-81
2020/12/03 04:30:53;;;;;;;46.77;28.17;;;;;;;;;;5033474;28;20196;-81
2020/12/03 04:33:18;;;;;;;46.20;25.50;;;;;;;;;;5033768;28;20199;-81
2020/12/03 04:35:43;;;;;;;50.50;28.20;;;;;;;;;;5033741;28;20606;-81
2020/12/03 04:38:09;;;;;;;46.00;24.63;;;;;;;;;;5033373;28;20207;-81
2020/12/03 04:40:36;;;;;;;46.20;24.07;;;;;;;;;;5033949;28;20232;-81
2020/12/03 04:43:06;;;;;;;59.70;34.00;;;;;;;;;;5032365;28;20184;-81
2020/12/03 04:45:39;;;;;;;55.93;32.90;;;;;;;;;;5033978;28;20177;-81
2020/12/03 04:48:13;;;;;;;42.30;22.63;;;;;;;;;;5033637;28;20172;-81
2020/12/03 04:50:39;;;;;;;45.43;25.30;;;;;;;;;;5033559;28;20184;-81
2020/12/03 04:53:19;;;;;;;44.40;24.10;;;;;;;;;;5033829;28;20172;-81
2020/12/03 04:55:44;;;;;;;45.03;24.57;;;;;;;;;;5033244;28;20165;-81
2020/12/03 04:58:36;;;;;;;43.67;25.73;;;;;;;;;;5033784;28;20636;-81
2020/12/03 05:01:17;;;;;;;46.70;23.47;;;;;;;;;;5034289;28;20193;-81
2020/12/03 05:04:02;;;;;;;37.30;21.90;;;;;;;;;;5033789;28;20180;-81
2020/12/03 05:06:39;;;;;;;43.30;23.53;;;;;;;;;;5033623;28;20534;-81
2020/12/03 05:09:24;;;;;;;41.90;21.83;;;;;;;;;;5033403;28;20176;-81
2020/12/03 05:12:09;;;;;;;43.23;24.67;;;;;;;;;;5035557;28;20267;-81
2020/12/03 05:14:41;;;;;;;58.57;27.70;;;;;;;;;;5036672;28;20215;-81
2020/12/03 05:17:19;;;;;;;43.53;24.63;;;;;;;;;;5037002;28;20176;-81
2020/12/03 05:20:23;;;;;;;39.33;22.23;;;;;;;;;;5037386;28;20176;-81
2020/12/03 05:22:55;;;;;;;32.63;18.23;;;;;;;;;;5037310;28;20230;-81
2020/12/03 05:25:21;;;;;;;36.53;21.13;;;;;;;;;;5036886;28;20203;-81
2020/12/03 05:27:47;;;;;;;36.53;21.00;;;;;;;;;;5036856;28;20180;-81
2020/12/03 05:30:12;;;;;;;37.27;18.57;;;;;;;;;;5036804;28;20530;-81
2020/12/03 05:32:37;;;;;;;83.53;35.67;;;;;;;;;;5035474;28;20177;-81
2020/12/03 05:35:04;;;;;;;35.23;19.93;;;;;;;;;;5036698;28;20184;-81
2020/12/03 05:37:31;;;;;;;40.33;23.73;;;;;;;;;;5036622;28;20204;-81
2020/12/03 05:39:58;;;;;;;40.37;21.47;;;;;;;;;;5036863;28;20211;-81
2020/12/03 05:42:25;;;;;;;28.33;17.33;;;;;;;;;;5037136;28;20661;-81
2020/12/03 05:44:54;;;;;;;33.83;20.67;;;;;;;;;;5036255;28;20208;-81
2020/12/03 05:47:26;;;;;;;33.50;20.03;;;;;;;;;;5036525;28;20180;-81
2020/12/03 05:49:53;;;;;;;39.90;24.37;;;;;;;;;;5037021;28;20173;-81
2020/12/03 05:52:20;;;;;;;36.27;21.67;;;;;;;;;;5036176;28;20177;-81
2020/12/03 05:54:57;;;;;;;40.03;23.33;;;;;;;;;;5035046;28;20623;-81
2020/12/03 05:57:25;;;;;;;51.00;26.17;;;;;;;;;;5036302;28;20757;-81
2020/12/03 05:59:51;;;;;;;49.43;26.07;;;;;;;;;;5036615;28;20255;-81
2020/12/03 06:02:19;;;;;;;37.13;19.70;;;;;;;;;;5036509;28;20592;-81
2020/12/03 06:04:46;;;;;;;34.00;20.60;;;;;;;;;;5036442;28;20190;-81
2020/12/03 06:07:29;;;;;;;35.70;20.87;;;;;;;;;;5035836;28;20177;-81
2020/12/03 06:10:01;;;;;;;31.43;18.03;;;;;;;;;;5036344;28;20172;-81
2020/12/03 06:12:29;;;;;;;34.23;20.13;;;;;;;;;;5036121;28;20161;-81
2020/12/03 06:14:55;;;;;;;33.20;19.90;;;;;;;;;;5036491;28;20173;-81
2020/12/03 06:17:23;;;;;;;48.03;26.50;;;;;;;;;;5035954;28;20658;-81
2020/12/03 06:19:48;;;;;;;57.40;29.40;;;;;;;;;;5036466;28;20686;-81
2020/12/03 06:22:26;;;;;;;32.97;18.53;;;;;;;;;;5035463;28;20280;-81
2020/12/03 06:25:01;;;;;;;29.97;16.93;;;;;;;;;;5035077;28;20196;-81
2020/12/03 06:27:29;;;;;;;33.40;18.03;;;;;;;;;;5036134;28;20229;-81
2020/12/03 06:30:13;;;;;;;32.67;19.30;;;;;;;;;;5035973;28;20168;-81
2020/12/03 06:32:53;;;;;;;34.77;20.90;;;;;;;;;;5035829;28;20255;-81
2020/12/03 06:35:32;;;;;;;31.37;18.73;;;;;;;;;;5035992;28;20164;-81
2020/12/03 06:38:01;;;;;;;37.43;20.57;;;;;;;;;;5036063;28;20285;-81
2020/12/03 06:40:28;;;;;;;28.80;18.30;;;;;;;;;;5035502;28;20195;-81
2020/12/03 06:42:56;;;;;;;35.30;21.53;;;;;;;;;;5035174;28;20207;-81
2020/12/03 06:45:26;;;;;;;34.13;20.90;;;;;;;;;;5033865;28;20264;-82
2020/12/03 06:48:10;;;;;;;40.90;23.80;;;;;;;;;;5034127;28;20191;-81
2020/12/03 06:51:00;;;;;;;37.40;22.27;;;;;;;;;;5035192;28;20203;-81
2020/12/03 06:53:52;;;;;;;33.27;19.00;;;;;;;;;;5035929;28;20173;-81
2020/12/03 06:56:36;;;;;;;34.90;20.40;;;;;;;;;;5035728;28;20232;-81
2020/12/03 06:59:12;;;;;;;57.27;27.10;;;;;;;;;;5030686;28;20199;-81
2020/12/03 07:01:43;;;;;;;41.37;23.53;;;;;;;;;;5034616;28;20240;-82
2020/12/03 07:04:30;;;;;;;36.70;22.60;;;;;;;;;;5034521;28;20172;-82
2020/12/03 07:07:05;;;;;;;37.83;22.83;;;;;;;;;;5035050;28;20186;-81
2020/12/03 07:09:37;;;;;;;42.10;25.07;;;;;;;;;;5035224;28;20164;-81
2020/12/03 07:12:11;;;;;;;35.03;21.67;;;;;;;;;;5034912;28;20169;-82
2020/12/03 07:14:55;;;;;;;34.63;21.80;;;;;;;;;;5034867;28;20168;-82
2020/12/03 07:17:23;;;;;;;55.97;31.77;;;;;;;;;;5034740;28;20176;-82
2020/12/03 07:19:54;;;;;;;34.47;20.60;;;;;;;;;;5035243;28;20549;-82
2020/12/03 07:22:23;;;;;;;39.20;22.77;;;;;;;;;;5035176;28;20173;-82
2020/12/03 07:24:49;;;;;;;37.90;23.07;;;;;;;;;;5033600;28;20192;-81
2020/12/03 07:27:20;;;;;;;39.73;23.13;;;;;;;;;;5034365;28;20180;-82
2020/12/03 07:29:55;;;;;;;42.67;24.50;;;;;;;;;;5034682;28;20174;-81
2020/12/03 07:32:33;;;;;;;52.33;33.13;;;;;;;;;;5034826;28;20622;-81
2020/12/03 07:35:20;;;;;;;44.13;27.60;;;;;;;;;;5033307;28;20171;-82
2020/12/03 07:37:56;;;;;;;46.60;25.97;;;;;;;;;;5033971;28;20232;-82
2020/12/03 07:40:21;;;;;;;69.23;35.10;;;;;;;;;;5034333;28;20183;-82
2020/12/03 07:42:47;;;;;;;64.97;38.83;;;;;;;;;;5034364;28;20604;-82
2020/12/03 07:45:32;;;;;;;58.53;33.17;;;;;;;;;;5034051;28;20175;-82
2020/12/03 07:48:06;;;;;;;43.33;24.07;;;;;;;;;;5035087;28;20164;-81
2020/12/03 07:50:38;;;;;;;33.63;19.83;;;;;;;;;;5034106;28;20611;-82
2020/12/03 07:53:20;;;;;;;55.70;29.10;;;;;;;;;;5014475;28;20228;-81
2020/12/03 07:55:46;;;;;;;32.23;20.20;;;;;;;;;;5014441;28;20188;-81
2020/12/03 07:58:32;;;;;;;48.87;27.43;;;;;;;;;;5014619;28;20221;-81
2020/12/03 08:00:57;;;;;;;51.37;29.63;;;;;;;;;;5014726;28;20176;-82
2020/12/03 08:03:37;;;;;;;63.03;33.33;;;;;;;;;;5034233;28;20173;-81
2020/12/03 08:06:09;;;;;;;44.10;24.07;;;;;;;;;;5033679;28;20176;-81
2020/12/03 08:08:36;;;;;;;44.97;27.43;;;;;;;;;;5028629;28;20525;-81
2020/12/03 08:11:01;;;;;;;36.43;22.00;;;;;;;;;;5019373;28;20181;-81
2020/12/03 08:13:42;;;;;;;60.80;29.53;;;;;;;;;;5026824;28;20658;-81
2020/12/03 08:16:12;;;;;;;39.47;21.77;;;;;;;;;;5016160;28;20219;-81
2020/12/03 08:18:57;;;;;;;46.47;27.43;;;;;;;;;;5033772;28;20692;-81
2020/12/03 08:21:35;;;;;;;49.70;29.07;;;;;;;;;;5033802;28;20153;-81
2020/12/03 08:24:00;;;;;;;56.40;29.77;;;;;;;;;;5033728;28;20668;-81
2020/12/03 08:26:28;;;;;;;52.80;30.83;;;;;;;;;;5033766;28;20180;-81
2020/12/03 08:28:54;;;;;;;40.30;22.73;;;;;;;;;;5033930;28;20172;-81
2020/12/03 08:31:19;;;;;;;50.37;27.93;;;;;;;;;;5034319;28;20175;-81
2020/12/03 08:33:50;;;;;;;38.67;22.57;;;;;;;;;;5033526;28;20177;-81
2020/12/03 08:36:16;;;;;;;39.60;23.97;;;;;;;;;;5034122;28;20626;-81
2020/12/03 08:38:43;;;;;;;41.40;24.10;;;;;;;;;;5033849;28;20205;-81
2020/12/03 08:41:15;;;;;;;41.13;22.60;;;;;;;;;;5033397;28;20168;-81
2020/12/03 08:43:47;;;;;;;41.17;24.07;;;;;;;;;;5033956;28;20176;-81
2020/12/03 08:46:24;;;;;;;44.53;25.80;;;;;;;;;;5035005;28;20189;-81
2020/12/03 08:48:49;;;;;;;54.63;30.60;;;;;;;;;;5038178;28;20164;-80
2020/12/03 08:51:16;;;;;;;44.57;26.03;;;;;;;;;;5037864;28;20549;-81
2020/12/03 08:53:47;;;;;;;37.73;21.40;;;;;;;;;;5033004;28;20169;-81
2020/12/03 08:56:15;;;;;;;65.10;34.30;;;;;;;;;;5017214;28;20616;-81
2020/12/03 08:58:51;;;;;;;46.87;27.93;;;;;;;;;;5018073;28;20201;-81
2020/12/03 09:01:18;;;;;;;41.60;25.37;;;;;;;;;;5017905;28;20168;-81
2020/12/03 09:03:44;;;;;;;40.07;23.57;;;;;;;;;;5017224;28;20173;-81
2020/12/03 09:06:10;;;;;;;41.10;24.47;;;;;;;;;;5017171;28;20521;-80
2020/12/03 09:08:35;;;;;;;51.03;31.83;;;;;;;;;;5017100;28;20179;-81
2020/12/03 09:11:01;;;;;;;52.33;29.33;;;;;;;;;;5016996;28;20177;-81
2020/12/03 09:13:27;;;;;;;47.83;28.70;;;;;;;;;;5017310;28;20616;-81
2020/12/03 09:15:53;;;;;;;41.63;25.53;;;;;;;;;;5017279;28;20169;-81
2020/12/03 09:18:18;;;;;;;37.50;26.20;;;;;;;;;;5017466;28;20216;-81
2020/12/03 09:20:45;;;;;;;43.27;26.07;;;;;;;;;;5017500;28;20173;-80
2020/12/03 09:23:14;;;;;;;81.57;40.13;;;;;;;;;;5016846;28;20248;-81
2020/12/03 09:25:39;;;;;;;35.93;22.57;;;;;;;;;;5017269;28;20220;-82
2020/12/03 09:28:04;;;;;;;42.37;25.77;;;;;;;;;;5017065;28;20628;-81
2020/12/03 09:30:31;;;;;;;50.87;28.07;;;;;;;;;;5036382;28;20179;-81
2020/12/03 09:32:57;;;;;;;41.13;25.37;;;;;;;;;;5036523;28;20173;-81
2020/12/03 09:35:23;;;;;;;38.93;23.23;;;;;;;;;;5037242;28;20168;-81
2020/12/03 09:37:49;;;;;;;45.60;25.03;;;;;;;;;;5037145;28;20516;-81
2020/12/03 09:40:15;;;;;;;37.93;23.60;;;;;;;;;;5036326;28;20524;-81
2020/12/03 09:42:48;;;;;;;40.23;24.93;;;;;;;;;;5036257;28;20204;-81
2020/12/03 09:45:18;;;;;;;39.30;22.67;;;;;;;;;;5036936;28;20513;-81
2020/12/03 09:47:45;;;;;;;41.00;25.57;;;;;;;;;;5036677;28;20169;-81
2020/12/03 09:50:11;;;;;;;49.37;27.27;;;;;;;;;;5036253;28;20176;-81
2020/12/03 09:52:40;;;;;;;42.97;25.63;;;;;;;;;;5036611;28;20521;-81
2020/12/03 09:55:13;;;;;;;44.07;25.93;;;;;;;;;;5036751;28;20195;-81
2020/12/03 09:57:38;;;;;;;43.70;26.03;;;;;;;;;;5035318;28;20225;-80
2020/12/03 10:00:06;;;;;;;40.63;24.00;;;;;;;;;;5036332;28;20314;-81
2020/12/03 10:02:48;;;;;;;35.47;21.63;;;;;;;;;;5036169;28;20567;-81
2020/12/03 10:05:21;;;;;;;44.77;24.13;;;;;;;;;;5036252;28;20631;-81
2020/12/03 10:08:02;;;;;;;34.70;20.90;;;;;;;;;;5035310;28;20192;-82
2020/12/03 10:10:27;;;;;;;32.17;20.90;;;;;;;;;;5036119;28;20184;-82
2020/12/03 10:13:15;;;;;;;35.47;22.43;;;;;;;;;;5036554;28;20576;-81
2020/12/03 10:15:44;;;;;;;49.27;30.57;;;;;;;;;;5035218;28;20185;-81
2020/12/03 10:18:14;;;;;;;43.40;24.70;;;;;;;;;;5035581;28;20204;-81
2020/12/03 10:20:40;;;;;;;38.23;24.10;;;;;;;;;;5036769;28;20179;-81
2020/12/03 10:23:15;;;;;;;39.17;24.57;;;;;;;;;;5035897;28;20172;-81
2020/12/03 10:25:41;;;;;;;53.57;35.50;;;;;;;;;;5035477;28;20202;-81
2020/12/03 10:28:24;;;;;;;43.83;26.07;;;;;;;;;;5034021;28;20184;-81
2020/12/03 10:30:53;;;;;;;52.70;30.83;;;;;;;;;;5035728;28;20259;-81
2020/12/03 10:33:19;;;;;;;57.67;32.47;;;;;;;;;;5035744;28;20173;-81
2020/12/03 10:35:48;;;;;;;61.57;35.43;;;;;;;;;;5035786;28;20177;-81
2020/12/03 10:38:19;;;;;;;54.77;33.67;;;;;;;;;;5031583;28;20251;-81
2020/12/03 10:40:45;;;;;;;53.93;32.67;;;;;;;;;;5035345;28;20568;-81
2020/12/03 10:43:20;;;;;;;40.23;25.63;;;;;;;;;;5035226;28;20207;-81
2020/12/03 10:45:49;;;;;;;53.43;33.77;;;;;;;;;;5036274;28;20599;-81
2020/12/03 10:48:22;;;;;;;42.93;26.13;;;;;;;;;;5035610;28;20177;-81
2020/12/03 10:50:50;;;;;;;43.57;23.90;;;;;;;;;;5035015;28;20275;-81
2020/12/03 10:53:19;;;;;;;38.90;24.00;;;;;;;;;;5035183;28;20623;-81
2020/12/03 10:55:47;;;;;;;42.00;24.20;;;;;;;;;;5034744;28;20230;-81
2020/12/03 10:58:13;;;;;;;44.73;25.47;;;;;;;;;;5019012;28;20233;-81
2020/12/03 11:00:41;;;;;;;41.70;25.13;;;;;;;;;;5013241;28;20517;-81
2020/12/03 11:03:10;;;;;;;43.37;26.67;;;;;;;;;;5022110;28;20181;-81
2020/12/03 11:05:35;;;;;;;47.60;29.43;;;;;;;;;;5032354;28;20726;-81
2020/12/03 11:08:01;;;;;;;53.33;33.23;;;;;;;;;;5032862;28;20291;-83
2020/12/03 11:10:28;;;;;;;38.83;25.17;;;;;;;;;;5032807;28;20560;-82
2020/12/03 11:12:57;;;;;;;41.90;24.50;;;;;;;;;;5033005;28;20187;-83
2020/12/03 11:15:23;;;;;;;44.63;28.23;;;;;;;;;;5032867;28;20172;-82
2020/12/03 11:17:53;;;;;;;46.83;27.60;;;;;;;;;;5032940;28;20643;-82
2020/12/03 11:20:20;;;;;;;43.40;25.47;;;;;;;;;;5032579;28;20176;-79
2020/12/03 11:23:08;;;;;;;43.73;26.43;;;;;;;;;;5033224;28;20191;-81
2020/12/03 11:25:34;;;;;;;46.07;24.67;;;;;;;;;;5031829;28;20208;-80
2020/12/03 11:28:09;;;;;;;45.33;28.80;;;;;;;;;;5032300;28;20263;-80
2020/12/03 11:30:35;;;;;;;43.83;28.33;;;;;;;;;;5031481;28;20176;-80
2020/12/03 11:33:00;;;;;;;44.53;25.83;;;;;;;;;;5031459;28;20184;-80
2020/12/03 11:35:27;;;;;;;40.77;25.63;;;;;;;;;;5032579;28;20195;-80
2020/12/03 11:37:52;;;;;;;41.63;24.43;;;;;;;;;;5030530;28;20667;-80
2020/12/03 11:40:22;;;;;;;39.57;23.13;;;;;;;;;;5032181;28;20230;-83
2020/12/03 11:42:59;;;;;;;40.27;23.67;;;;;;;;;;5032279;28;20204;-80
2020/12/03 11:50:52;;;;;;;47.20;26.37;;;;;;;;;;5032404;28;20566;-80
2020/12/03 11:53:21;;;;;;;42.53;26.40;;;;;;;;;;5033910;28;20307;-79
2020/12/03 11:55:46;;;;;;;43.87;27.77;;;;;;;;;;5033804;28;20638;-79
2020/12/03 11:58:11;;;;;;;47.37;27.73;;;;;;;;;;5033363;28;20323;-80
2020/12/03 12:00:37;;;;;;;52.17;28.83;;;;;;;;;;5033880;28;20164;-80
2020/12/03 12:03:10;;;;;;;65.20;34.27;;;;;;;;;;5033664;28;20267;-82
2020/12/03 12:08:47;;;;;;;40.50;25.77;;;;;;;;;;5033950;28;20246;-80
2020/12/03 12:13:24;;;;;;;48.17;29.27;;;;;;;;;;5033652;28;20168;-80
2020/12/03 12:15:49;;;;;;;43.47;26.77;;;;;;;;;;5033780;28;20179;-80
2020/12/03 12:18:15;;;;;;;43.03;23.43;;;;;;;;;;5033875;28;20231;-80
2020/12/03 12:20:40;;;;;;;110.87;55.17;;;;;;;;;;5032191;28;20173;-80
2020/12/03 12:23:06;;;;;;;74.13;36.17;;;;;;;;;;5033740;28;20173;-80
2020/12/03 12:25:31;;;;;;;96.37;48.07;;;;;;;;;;5033415;28;20184;-80
2020/12/03 12:27:56;;;;;;;51.57;32.23;;;;;;;;;;5032717;28;20172;-81
2020/12/03 12:30:22;;;;;;;51.43;28.83;;;;;;;;;;5031637;28;20172;-80
2020/12/03 12:32:47;;;;;;;39.00;22.50;;;;;;;;;;5031501;28;20169;-81
2020/12/03 12:35:13;;;;;;;42.13;28.20;;;;;;;;;;5032330;28;20188;-81
2020/12/03 12:37:38;;;;;;;77.47;36.50;;;;;;;;;;5031598;28;20207;-81
2020/12/03 12:40:04;;;;;;;94.20;41.03;;;;;;;;;;5031251;28;20639;-81
2020/12/03 12:42:29;;;;;;;75.67;35.50;;;;;;;;;;5017858;28;20182;-82
2020/12/03 12:44:55;;;;;;;50.27;29.10;;;;;;;;;;5012006;28;20177;-82
2020/12/03 12:47:21;;;;;;;62.07;29.23;;;;;;;;;;5012096;28;20184;-82
2020/12/03 12:49:46;;;;;;;68.00;31.17;;;;;;;;;;5011866;28;20178;-81
2020/12/03 12:52:12;;;;;;;46.93;25.63;;;;;;;;;;5011922;28;20170;-82
2020/12/03 12:54:37;;;;;;;49.23;29.47;;;;;;;;;;5013559;28;20578;-81
2020/12/03 12:57:03;;;;;;;48.63;28.60;;;;;;;;;;5014435;28;20356;-81
2020/12/03 12:59:29;;;;;;;118.10;48.83;;;;;;;;;;5032781;28;20219;-80
2020/12/03 13:01:54;;;;;;;148.67;60.77;;;;;;;;;;5033495;28;20169;-80
2020/12/03 13:04:20;;;;;;;55.53;32.23;;;;;;;;;;5032440;28;20181;-81
2020/12/03 13:06:46;;;;;;;71.07;37.77;;;;;;;;;;5032946;28;20184;-81
2020/12/03 13:09:12;;;;;;;57.10;29.33;;;;;;;;;;5032203;28;20669;-81
2020/12/03 13:11:39;;;;;;;74.73;35.33;;;;;;;;;;5033593;28;20175;-81
2020/12/03 13:14:09;;;;;;;58.60;33.20;;;;;;;;;;5033247;28;20184;-81
2020/12/03 13:16:35;;;;;;;56.77;35.13;;;;;;;;;;5033282;28;20164;-81
2020/12/03 13:19:02;;;;;;;69.27;37.27;;;;;;;;;;5032985;28;20281;-81
2020/12/03 13:21:27;;;;;;;60.17;33.87;;;;;;;;;;5021165;28;20173;-81
2020/12/03 13:23:53;;;;;;;91.97;44.53;;;;;;;;;;5018292;28;20222;-81
2020/12/03 13:26:20;;;;;;;51.67;29.13;;;;;;;;;;5027131;28;20173;-81
2020/12/03 13:28:45;;;;;;;65.53;33.23;;;;;;;;;;5032835;28;20169;-81
2020/12/03 13:31:10;;;;;;;58.97;32.43;;;;;;;;;;5033096;28;20169;-81
2020/12/03 13:33:36;;;;;;;51.57;30.87;;;;;;;;;;5034876;28;20535;-81
2020/12/03 13:36:01;;;;;;;57.70;31.27;;;;;;;;;;5035378;28;20515;-81
2020/12/03 13:38:26;;;;;;;55.10;31.00;;;;;;;;;;5036828;28;20677;-80
2020/12/03 13:40:52;;;;;;;49.50;28.23;;;;;;;;;;5034386;28;20188;-80
2020/12/03 13:43:17;;;;;;;47.70;27.97;;;;;;;;;;5036593;28;20168;-80
2020/12/03 13:45:42;;;;;;;70.70;35.50;;;;;;;;;;5036798;28;20171;-80
2020/12/03 13:48:08;;;;;;;55.97;31.73;;;;;;;;;;5036473;28;20173;-81
2020/12/03 13:50:34;;;;;;;49.80;29.60;;;;;;;;;;5036991;28;20476;-80
2020/12/03 13:52:59;;;;;;;50.20;27.77;;;;;;;;;;5036466;28;20175;-80
2020/12/03 13:55:24;;;;;;;52.87;28.87;;;;;;;;;;5037122;28;20251;-80
2020/12/03 13:57:50;;;;;;;58.13;32.63;;;;;;;;;;5035779;28;20232;-80
2020/12/03 14:00:15;;;;;;;62.13;36.37;;;;;;;;;;5036184;28;20172;-80
2020/12/03 14:02:40;;;;;;;56.47;30.13;;;;;;;;;;5036163;28;20215;-79
2020/12/03 14:05:06;;;;;;;65.87;32.50;;;;;;;;;;5035916;28;20201;-80
2020/12/03 14:07:31;;;;;;;47.43;25.77;;;;;;;;;;5036109;28;20169;-79
2020/12/03 14:09:56;;;;;;;46.33;26.00;;;;;;;;;;5036039;28;20314;-79
2020/12/03 14:12:21;;;;;;;54.00;30.87;;;;;;;;;;5035696;28;20251;-80
2020/12/03 14:14:47;;;;;;;51.00;29.80;;;;;;;;;;5036161;28;20612;-80
2020/12/03 14:17:13;;;;;;;60.63;32.40;;;;;;;;;;5035551;28;20169;-80
2020/12/03 14:19:39;;;;;;;53.53;31.10;;;;;;;;;;5035705;28;20200;-80
2020/12/03 14:22:04;;;;;;;59.03;30.40;;;;;;;;;;5019854;28;20196;-80
2020/12/03 14:24:29;;;;;;;48.87;26.87;;;;;;;;;;5015676;28;20200;-80
2020/12/03 14:26:55;;;;;;;57.03;30.57;;;;;;;;;;5018104;28;20544;-80
2020/12/03 14:29:20;;;;;;;54.37;32.53;;;;;;;;;;5035533;28;20176;-80
2020/12/03 14:31:48;;;;;;;48.93;29.07;;;;;;;;;;5034736;28;20188;-80
2020/12/03 14:34:14;;;;;;;49.13;28.33;;;;;;;;;;5035917;28;20680;-80